View Sortable Currents For Network
ASOSAWOSCoCoRaHSCOOPDCPISUSM
SchoolNetOtherSCANMy FavoritesBy StateRWIS
RWIS SurfaceRWIS TrafficRWIS SoilBy NWS WFO

Current AWOS Conditions

** This page will automatically refresh every five minutes.
Sorted by: (Temperature)     Click on a column to sort it.

Add ID: Name: Ob Time   Wind [knots]   Rainfall
Temp (Hi / Lo) DewP Feels RH% Dir Speed Peak Gust
@ Time
Alti Vsby Hour Today
FXYForest City06:15 AM M(12/12) M M M 0 04 @ 03:25 AM 30.08 10 0
AXAALGONA06:05 AM 10(12/9) 0 50 8G1313 @ 06:05 AM 30.07 0.25 0
EBSWebster City06:15 AM 10(12/7) 9 -3 96 80 88 @ 04:20 AM 30.05 3 0
FODFORT DODGE05:56 AM 12(12/7) 10 0 91 60 79 @ 05:15 AM 30.08 0.5 0.0001 0.0001
SLBStorm Lake06:15 AM 14(19/14) 14 -1 100 70 12G1822 @ 05:55 AM 30.03 0.25 0
SHLSHELDON06:15 AM 14(16/14) 14 1 100 70 910 @ 06:10 AM 30.03 1.75 0
CKPCherokee06:15 AM 16(19/16) 16 5 100 70 77 @ 03:05 AM 30.06 7 0
ORCOrange City06:15 AM 16(18/16) 16 100 0 05 @ 04:15 AM 30.04 3 0
CAVCLARION06:15 AM 16(16/7) 16 2 100 100 1112 @ 03:10 AM 30.08 7 0
LRJLE MARS06:15 AM 18(19/18) 18 9 100 90 6G1114 @ 03:35 AM 30.06 3 0
CINCARROLL06:15 AM 19(23/18) 18 11 96 40 514 @ 05:00 AM 30.06 5 0
DEHDECORAH06:15 AM 19(21/19) 19 100 6 @ 04:25 AM 30.12 3 0
BNWBOONE MUNI06:15 AM 21(21/21) 21 100 16 @ 05:30 AM 30.04 5 0
DNSDENISON06:15 AM 21(23/19) 19 10 92 90 919 @ 04:15 AM 30.03 8 0
CCYCHARLES CITY06:15 AM 21(21/18) 21 9 100 80 1111 @ 06:15 AM 30.11 4 0
IFAIowa Falls06:15 AM 22(22/21) 19 12 88 80 810 @ 06:10 AM 30.09 7 0
OLZOELWEIN06:15 AM 23(23/21) 23 11 100 100 12G1818 @ 06:10 AM 30.11 7 0
PROPerry06:05 AM 23(24/21) 22 15 96 90 610 @ 05:55 AM 30.06 7 0
ADUAUDUBON06:15 AM 23(23/21) 19 17 84 90 416 @ 03:35 AM 30.02 7 0
HNRHARLAN06:15 AM 23(23/19) 23 13 100 60 819 @ 03:00 AM 30.04 10 0
IIBINDEPENDENCE06:15 AM 24(28/22) 23 15 96 110 711 @ 03:30 AM 30.12 7 0
CBFCOUNCIL BLUFFS06:15 AM 25(25/21) 25 15 100 110 918 @ 02:00 AM 30.01 7 0
AIOATLANTIC06:15 AM 25(25/21) 23 14 92 70 1120 @ 02:40 AM 30 9 0
IKVANKENY06:15 AM 25(25/23) 23 15 92 70 912 @ 03:30 AM 30.08 8 0
GGIGrinnell06:20 AM 26(26/24) 24 16 92 80 918 @ 06:10 AM 30.08 7 0
TNUNEWTON MUNI06:15 AM 27(27/23) 25 19 92 100 7G1216 @ 06:00 AM 30.09 7 0
CSQCRESTON06:15 AM 27(27/25) 25 14 92 90 16G2123 @ 03:15 AM 30.01 6 0
RDKRED OAK06:15 AM 27(27/25) 25 20 92 6G1220 @ 02:15 AM 30.02 9 0
CNCCHARITON06:15 AM 27(27/25) 25 15 92 90 1316 @ 12:15 AM 30.03 5 0
SDASHENANDOAH MUNI06:15 AM 28(28/25) 27 21 96 80 621 @ 02:10 AM 30.03 2.5 0
VTIVINTON06:35 AM 28(28/24) 25 20 88 90 710 @ 04:35 AM 30.13 7 0
PEAPELLA06:15 AM 28(28/25) 24 20 85 100 715 @ 05:50 AM 30.11 7 0
TVKCenterville06:00 AM 28(28/27) 28 17 100 80 1217 @ 02:10 AM 30.06 10 0
OOAOskaloosa06:15 AM 28(28/26) 26 19 92 100 913 @ 12:35 AM 30.09 7 0 0.0001
ICLCLARINDA06:15 AM 28(28/25) 27 21 96 110 619 @ 01:30 AM 30.04 9 0
OXVKnoxville06:15 AM 28(28/25) 25 19 88 100 814 @ 05:40 AM 30.06 5 0
I75Osceola06:15 AM 28(28/26) 26 19 92 80 815 @ 12:35 AM 30.04 7 0
MXOMONTICELLO MUNI06:15 AM 28(28/25) 25 18 88 110 1014 @ 05:15 AM 30.13 10 0
AWGWASHINGTON06:15 AM 30(30/27) 30 20 100 70 1018 @ 01:40 AM 30.12 6 0
MPZMOUNT PLEASANT06:15 AM 30(30/30) 28 20 92 80 1015 @ 05:15 AM 30.12 5 0
FFLFAIRFIELD06:15 AM 30(30/27) 27 19 88 90 1217 @ 05:20 AM 30.09 6 0
FSWFORT MADISON06:15 AM 30(30/30) 30 22 100 80 715 @ 04:20 AM 30.12 7 0
CWICLINTON05:56 AM 30(30/26) 27 19 88 80 1214 @ 06:00 AM 30.15 10 0
EOKKEOKUK MUNI06:15 AM 32(32/32) 30 60 715 @ 12:00 AM 30.1 3 0
MUTMUSCATINE06:15 AM 32(32/28) 27 70 812 @ 02:10 AM 30.13 9 0